Ce_breeze — ELSQ7 — position and weather

sailwx.info

Track history (hours):
 
Tides and Currents Weather Stations Pressure Air Temp Water Temp Dewpoint Dewpoint Depression Visibility Wind Speed Wind Dir Waves Ship Positions

Ce_breeze

Last reported at 2015-May-24 19:30 UTC. Time now 2015-May-26 05:27 UTC.
Position N 31°52' E 027°47'.

Length 240 m; draft 11 m.

Type: Tanker. MMSI: 636010400.

Date/timePositionNaut miles runAvg speedWind from/ knotsBaromVisibWave heightAir tempDewpointWater temp
2015-May-24 19:30N 31°52' E 027°47'77 1.9
2015-May-23 02:04N 30°60' E 028°54'8 0.8
2015-May-22 16:06N 31°06' E 028°48'610.8
2015-May-22 15:32N 31°11' E 028°44'  
2015-May-20 06:27N 35°05' E 017°45'8710.5
2015-May-19 22:11N 35°33' E 016°05'2910.5
2015-May-19 19:24N 35°41' E 015°30'2 2.2
2015-May-19 18:33N 35°42' E 015°28'22 5.4
2015-May-19 14:33N 35°47' E 015°02'9 9.1
2015-May-19 13:33N 35°46' E 014°51'9 9.3
2015-May-19 12:33N 35°46' E 014°40'2 2.0
2015-May-19 11:33N 35°47' E 014°38'7 7.3
2015-May-19 10:34N 35°54' E 014°40'2 1.6
2015-May-19 09:33N 35°54' E 014°42'2 2.2
2015-May-19 08:30N 35°54' E 014°45'0 0.0
2015-May-19 07:30N 35°54' E 014°45'0 0.0
2015-May-19 06:33N 35°54' E 014°45'0 0.0
2015-May-19 05:33N 35°54' E 014°45'0 0.0
2015-May-19 04:30N 35°54' E 014°45'0 0.0
2015-May-19 03:30N 35°54' E 014°45'0 0.0
2015-May-19 02:33N 35°54' E 014°45'0 0.0
2015-May-19 01:33N 35°54' E 014°45'0 0.0
2015-May-19 00:32N 35°54' E 014°45'0 0.0
2015-May-18 23:32N 35°54' E 014°45'0 0.0
2015-May-18 22:32N 35°54' E 014°45'0 0.0
2015-May-18 21:32N 35°54' E 014°45'0 0.0
2015-May-18 20:32N 35°54' E 014°45'0 0.0
2015-May-18 19:32N 35°54' E 014°45'0 0.0
2015-May-18 18:32N 35°54' E 014°45'0 0.0
2015-May-18 17:32N 35°54' E 014°45'0 0.0
2015-May-18 16:29N 35°54' E 014°45'0 0.0
2015-May-18 15:32N 35°54' E 014°45'0 0.5
2015-May-18 14:31N 35°54' E 014°45'7 7.3
2015-May-18 13:32N 35°60' E 014°39'9 8.8
2015-May-18 12:33N 36°07' E 014°32'9 8.8
2015-May-18 11:33N 36°13' E 014°25'9 8.7
2015-May-18 10:33N 36°19' E 014°17'9 8.8
2015-May-18 09:33N 36°25' E 014°08'9 9.3
2015-May-18 08:33N 36°31' E 014°00'10 9.7
2015-May-18 07:29N 36°38' E 013°50'1210.0
2015-May-18 06:19N 36°46' E 013°40'8 9.7
2015-May-18 05:32N 36°51' E 013°33'96 9.2
2015-May-17 19:05N 37°43' E 011°51'122 9.5
2015-May-17 06:16N 38°48' E 009°39'9 9.7
2015-May-17 05:23N 38°52' E 009°29'810.0
2015-May-17 04:33N 38°57' E 009°20'10 9.7
2015-May-17 03:33N 39°02' E 009°10'6 6.4
2015-May-17 02:33N 39°05' E 009°03'0 0.0
2015-May-17 01:31N 39°05' E 009°03'0 0.0
2015-May-17 00:31N 39°05' E 009°03'0 0.0
2015-May-16 23:31N 39°05' E 009°03'0 0.0
2015-May-16 22:31N 39°05' E 009°03'0 0.0
2015-May-16 21:31N 39°05' E 009°03'0 0.0
2015-May-16 20:31N 39°05' E 009°03'0 0.0
2015-May-16 19:31N 39°05' E 009°03'0 0.0
2015-May-16 18:31N 39°05' E 009°03'0 0.0
2015-May-16 17:31N 39°05' E 009°03'0 0.0
2015-May-16 16:32N 39°05' E 009°03'0 0.0
2015-May-16 15:29N 39°05' E 009°03'0 0.0
2015-May-16 14:28N 39°05' E 009°03'0 0.0
2015-May-16 13:31N 39°05' E 009°03'0 0.0
2015-May-16 12:31N 39°05' E 009°03'0 0.0
2015-May-16 11:31N 39°05' E 009°03'0 0.0
2015-May-16 10:31N 39°05' E 009°03'0 0.0
2015-May-16 09:28N 39°05' E 009°03'0 0.0
2015-May-16 08:31N 39°05' E 009°03'0 0.0
2015-May-16 07:31N 39°05' E 009°03'0 0.0
2015-May-16 06:32N 39°05' E 009°03'0 0.0
2015-May-16 05:28N 39°05' E 009°03'0 0.0
2015-May-16 04:31N 39°05' E 009°03'0 0.0
2015-May-16 03:31N 39°05' E 009°03'0 0.0
2015-May-16 02:29N 39°05' E 009°03'0 0.0
2015-May-16 01:31N 39°05' E 009°03'0 0.0
2015-May-16 00:31N 39°05' E 009°03'0 0.0
2015-May-15 23:28N 39°05' E 009°03'0 0.0
2015-May-15 22:31N 39°05' E 009°03'0 0.0
2015-May-15 21:31N 39°05' E 009°03'0 0.0
2015-May-15 20:31N 39°05' E 009°03'0 0.0
2015-May-15 19:28N 39°05' E 009°03'0 0.0
2015-May-15 18:31N 39°05' E 009°03'0 0.0
2015-May-15 17:31N 39°05' E 009°03'0 0.4
2015-May-15 16:33N 39°05' E 009°03'1 1.3
2015-May-15 15:33N 39°05' E 009°05'0 0.0
2015-May-15 14:33N 39°05' E 009°05'0 0.0
2015-May-15 13:33N 39°05' E 009°05'0 0.0
2015-May-15 12:33N 39°05' E 009°05'0 0.0
2015-May-15 11:33N 39°05' E 009°05'0 0.0
2015-May-15 10:33N 39°05' E 009°05'0 0.0
2015-May-15 09:33N 39°05' E 009°05'0 0.0
2015-May-15 08:33N 39°05' E 009°05'3 2.5
2015-May-15 07:33N 39°03' E 009°08'7 7.2
2015-May-15 06:33N 38°60' E 009°16'8 7.8
2015-May-15 05:32N 38°55' E 009°24'9 8.5
2015-May-15 04:28N 38°51' E 009°34'20 8.7
2015-May-15 02:09N 38°40' E 009°56'8 8.7
2015-May-15 01:17N 38°36' E 010°04'10 8.7
2015-May-15 00:09N 38°31' E 010°15'5 8.7
2015-May-14 23:33N 38°28' E 010°20'9 8.7
2015-May-14 22:28N 38°23' E 010°30'8 8.7
2015-May-14 21:33N 38°19' E 010°39'9 8.5
2015-May-14 20:31N 38°14' E 010°49'  
Track history (hours):
 
Tides and Currents Weather Stations Pressure Air Temp Water Temp Dewpoint Dewpoint Depression Visibility Wind Speed Wind Dir Waves Ship Positions

Ce_breeze

Last reported at 2015-May-24 19:30 UTC. Time now 2015-May-26 05:27 UTC.
Position N 31°52' E 027°47'.

Length 240 m; draft 11 m.

Type: Tanker. MMSI: 636010400.

Date/timePositionNaut miles runAvg speedWind from/ knotsBaromVisibWave heightAir tempDewpointWater temp
2015-May-24 19:30N 31°52' E 027°47'77 1.9
2015-May-23 02:04N 30°60' E 028°54'8 0.8
2015-May-22 16:06N 31°06' E 028°48'610.8
2015-May-22 15:32N 31°11' E 028°44'  
2015-May-20 06:27N 35°05' E 017°45'8710.5
2015-May-19 22:11N 35°33' E 016°05'2910.5
2015-May-19 19:24N 35°41' E 015°30'2 2.2
2015-May-19 18:33N 35°42' E 015°28'22 5.4
2015-May-19 14:33N 35°47' E 015°02'9 9.1
2015-May-19 13:33N 35°46' E 014°51'9 9.3
2015-May-19 12:33N 35°46' E 014°40'2 2.0
2015-May-19 11:33N 35°47' E 014°38'7 7.3
2015-May-19 10:34N 35°54' E 014°40'2 1.6
2015-May-19 09:33N 35°54' E 014°42'2 2.2
2015-May-19 08:30N 35°54' E 014°45'0 0.0
2015-May-19 07:30N 35°54' E 014°45'0 0.0
2015-May-19 06:33N 35°54' E 014°45'0 0.0
2015-May-19 05:33N 35°54' E 014°45'0 0.0
2015-May-19 04:30N 35°54' E 014°45'0 0.0
2015-May-19 03:30N 35°54' E 014°45'0 0.0
2015-May-19 02:33N 35°54' E 014°45'0 0.0
2015-May-19 01:33N 35°54' E 014°45'0 0.0
2015-May-19 00:32N 35°54' E 014°45'0 0.0
2015-May-18 23:32N 35°54' E 014°45'0 0.0
2015-May-18 22:32N 35°54' E 014°45'0 0.0
2015-May-18 21:32N 35°54' E 014°45'0 0.0
2015-May-18 20:32N 35°54' E 014°45'0 0.0
2015-May-18 19:32N 35°54' E 014°45'0 0.0
2015-May-18 18:32N 35°54' E 014°45'0 0.0
2015-May-18 17:32N 35°54' E 014°45'0 0.0
2015-May-18 16:29N 35°54' E 014°45'0 0.0
2015-May-18 15:32N 35°54' E 014°45'0 0.5
2015-May-18 14:31N 35°54' E 014°45'7 7.3
2015-May-18 13:32N 35°60' E 014°39'9 8.8
2015-May-18 12:33N 36°07' E 014°32'9 8.8
2015-May-18 11:33N 36°13' E 014°25'9 8.7
2015-May-18 10:33N 36°19' E 014°17'9 8.8
2015-May-18 09:33N 36°25' E 014°08'9 9.3
2015-May-18 08:33N 36°31' E 014°00'10 9.7
2015-May-18 07:29N 36°38' E 013°50'1210.0
2015-May-18 06:19N 36°46' E 013°40'8 9.7
2015-May-18 05:32N 36°51' E 013°33'96 9.2
2015-May-17 19:05N 37°43' E 011°51'122 9.5
2015-May-17 06:16N 38°48' E 009°39'9 9.7
2015-May-17 05:23N 38°52' E 009°29'810.0
2015-May-17 04:33N 38°57' E 009°20'10 9.7
2015-May-17 03:33N 39°02' E 009°10'6 6.4
2015-May-17 02:33N 39°05' E 009°03'0 0.0
2015-May-17 01:31N 39°05' E 009°03'0 0.0
2015-May-17 00:31N 39°05' E 009°03'0 0.0
2015-May-16 23:31N 39°05' E 009°03'0 0.0
2015-May-16 22:31N 39°05' E 009°03'0 0.0
2015-May-16 21:31N 39°05' E 009°03'0 0.0
2015-May-16 20:31N 39°05' E 009°03'0 0.0
2015-May-16 19:31N 39°05' E 009°03'0 0.0
2015-May-16 18:31N 39°05' E 009°03'0 0.0
2015-May-16 17:31N 39°05' E 009°03'0 0.0
2015-May-16 16:32N 39°05' E 009°03'0 0.0
2015-May-16 15:29N 39°05' E 009°03'0 0.0
2015-May-16 14:28N 39°05' E 009°03'0 0.0
2015-May-16 13:31N 39°05' E 009°03'0 0.0
2015-May-16 12:31N 39°05' E 009°03'0 0.0
2015-May-16 11:31N 39°05' E 009°03'0 0.0
2015-May-16 10:31N 39°05' E 009°03'0 0.0
2015-May-16 09:28N 39°05' E 009°03'0 0.0
2015-May-16 08:31N 39°05' E 009°03'0 0.0
2015-May-16 07:31N 39°05' E 009°03'0 0.0
2015-May-16 06:32N 39°05' E 009°03'0 0.0
2015-May-16 05:28N 39°05' E 009°03'0 0.0
2015-May-16 04:31N 39°05' E 009°03'0 0.0
2015-May-16 03:31N 39°05' E 009°03'0 0.0
2015-May-16 02:29N 39°05' E 009°03'0 0.0
2015-May-16 01:31N 39°05' E 009°03'0 0.0
2015-May-16 00:31N 39°05' E 009°03'0 0.0
2015-May-15 23:28N 39°05' E 009°03'0 0.0
2015-May-15 22:31N 39°05' E 009°03'0 0.0
2015-May-15 21:31N 39°05' E 009°03'0 0.0
2015-May-15 20:31N 39°05' E 009°03'0 0.0
2015-May-15 19:28N 39°05' E 009°03'0 0.0
2015-May-15 18:31N 39°05' E 009°03'0 0.0
2015-May-15 17:31N 39°05' E 009°03'0 0.4
2015-May-15 16:33N 39°05' E 009°03'1 1.3
2015-May-15 15:33N 39°05' E 009°05'0 0.0
2015-May-15 14:33N 39°05' E 009°05'0 0.0
2015-May-15 13:33N 39°05' E 009°05'0 0.0
2015-May-15 12:33N 39°05' E 009°05'0 0.0
2015-May-15 11:33N 39°05' E 009°05'0 0.0
2015-May-15 10:33N 39°05' E 009°05'0 0.0
2015-May-15 09:33N 39°05' E 009°05'0 0.0
2015-May-15 08:33N 39°05' E 009°05'3 2.5
2015-May-15 07:33N 39°03' E 009°08'7 7.2
2015-May-15 06:33N 38°60' E 009°16'8 7.8
2015-May-15 05:32N 38°55' E 009°24'9 8.5
2015-May-15 04:28N 38°51' E 009°34'20 8.7
2015-May-15 02:09N 38°40' E 009°56'8 8.7
2015-May-15 01:17N 38°36' E 010°04'10 8.7
2015-May-15 00:09N 38°31' E 010°15'5 8.7
2015-May-14 23:33N 38°28' E 010°20'9 8.7
2015-May-14 22:28N 38°23' E 010°30'8 8.7
2015-May-14 21:33N 38°19' E 010°39'9 8.5
2015-May-14 20:31N 38°14' E 010°49'  

Dump ship's entire track history